sensor_id;sensor_type;location;lat;lon;timestamp;temperature;humidity
33077;DHT22;67066;51.964;5.924;2024-03-06T00:01:40;6.10;99.90
33077;DHT22;67066;51.964;5.924;2024-03-06T00:04:06;6.10;99.90
33077;DHT22;67066;51.964;5.924;2024-03-06T00:06:32;6.10;99.90
33077;DHT22;67066;51.964;5.924;2024-03-06T00:09:00;6.10;99.90
33077;DHT22;67066;51.964;5.924;2024-03-06T00:11:28;6.00;99.90
33077;DHT22;67066;51.964;5.924;2024-03-06T00:13:54;6.00;99.90
33077;DHT22;67066;51.964;5.924;2024-03-06T00:16:20;6.00;99.90
33077;DHT22;67066;51.964;5.924;2024-03-06T00:18:46;5.90;99.90
33077;DHT22;67066;51.964;5.924;2024-03-06T00:21:12;5.90;99.90
33077;DHT22;67066;51.964;5.924;2024-03-06T00:23:39;5.90;99.90
33077;DHT22;67066;51.964;5.924;2024-03-06T00:26:05;5.90;99.90
33077;DHT22;67066;51.964;5.924;2024-03-06T00:28:31;5.90;99.90
33077;DHT22;67066;51.964;5.924;2024-03-06T00:30:57;5.90;99.90
33077;DHT22;67066;51.964;5.924;2024-03-06T00:33:23;5.80;99.90
33077;DHT22;67066;51.964;5.924;2024-03-06T00:35:49;5.80;99.90
33077;DHT22;67066;51.964;5.924;2024-03-06T00:38:15;5.70;99.90
33077;DHT22;67066;51.964;5.924;2024-03-06T00:40:41;5.70;99.90
33077;DHT22;67066;51.964;5.924;2024-03-06T00:43:07;5.70;99.90
33077;DHT22;67066;51.964;5.924;2024-03-06T00:45:33;5.70;99.90
33077;DHT22;67066;51.964;5.924;2024-03-06T00:47:59;5.70;99.90
33077;DHT22;67066;51.964;5.924;2024-03-06T00:50:25;5.60;99.90
33077;DHT22;67066;51.964;5.924;2024-03-06T00:52:51;5.60;99.90
33077;DHT22;67066;51.964;5.924;2024-03-06T00:55:17;5.50;99.90
33077;DHT22;67066;51.964;5.924;2024-03-06T00:57:43;5.50;99.90
33077;DHT22;67066;51.964;5.924;2024-03-06T01:00:11;5.40;99.90
33077;DHT22;67066;51.964;5.924;2024-03-06T01:02:37;5.30;99.90
33077;DHT22;67066;51.964;5.924;2024-03-06T01:05:04;5.20;99.90
33077;DHT22;67066;51.964;5.924;2024-03-06T01:07:30;5.20;99.90
33077;DHT22;67066;51.964;5.924;2024-03-06T01:09:57;5.10;99.90
33077;DHT22;67066;51.964;5.924;2024-03-06T01:12:24;5.10;99.90
33077;DHT22;67066;51.964;5.924;2024-03-06T01:14:50;5.00;99.90
33077;DHT22;67066;51.964;5.924;2024-03-06T01:17:16;5.00;99.90
33077;DHT22;67066;51.964;5.924;2024-03-06T01:19:42;5.00;99.90
33077;DHT22;67066;51.964;5.924;2024-03-06T01:22:12;5.00;99.90
33077;DHT22;67066;51.964;5.924;2024-03-06T01:24:40;4.90;99.90
33077;DHT22;67066;51.964;5.924;2024-03-06T01:27:06;4.90;99.90
33077;DHT22;67066;51.964;5.924;2024-03-06T01:29:32;4.90;99.90
33077;DHT22;67066;51.964;5.924;2024-03-06T01:31:59;4.90;99.90
33077;DHT22;67066;51.964;5.924;2024-03-06T01:34:25;4.80;99.90
33077;DHT22;67066;51.964;5.924;2024-03-06T01:36:52;4.80;99.90
33077;DHT22;67066;51.964;5.924;2024-03-06T01:39:18;4.80;99.90
33077;DHT22;67066;51.964;5.924;2024-03-06T01:41:51;4.80;99.90
33077;DHT22;67066;51.964;5.924;2024-03-06T01:44:18;4.70;99.90
33077;DHT22;67066;51.964;5.924;2024-03-06T01:46:45;4.80;99.90
33077;DHT22;67066;51.964;5.924;2024-03-06T01:49:15;4.70;99.90
33077;DHT22;67066;51.964;5.924;2024-03-06T01:51:44;4.70;99.90
33077;DHT22;67066;51.964;5.924;2024-03-06T01:54:11;4.70;99.90
33077;DHT22;67066;51.964;5.924;2024-03-06T01:56:44;4.70;99.90
33077;DHT22;67066;51.964;5.924;2024-03-06T01:59:13;4.60;99.90
33077;DHT22;67066;51.964;5.924;2024-03-06T02:01:41;4.60;99.90
33077;DHT22;67066;51.964;5.924;2024-03-06T02:04:08;4.50;99.90
33077;DHT22;67066;51.964;5.924;2024-03-06T02:06:40;4.50;99.90
33077;DHT22;67066;51.964;5.924;2024-03-06T02:09:07;4.40;99.90
33077;DHT22;67066;51.964;5.924;2024-03-06T02:11:33;4.40;99.90
33077;DHT22;67066;51.964;5.924;2024-03-06T02:13:59;4.40;99.90
33077;DHT22;67066;51.964;5.924;2024-03-06T02:16:25;4.40;99.90
33077;DHT22;67066;51.964;5.924;2024-03-06T02:21:20;4.30;99.90
33077;DHT22;67066;51.964;5.924;2024-03-06T02:23:46;4.30;99.90
33077;DHT22;67066;51.964;5.924;2024-03-06T02:26:13;4.20;99.90
33077;DHT22;67066;51.964;5.924;2024-03-06T02:28:39;4.20;99.90
33077;DHT22;67066;51.964;5.924;2024-03-06T02:31:05;4.20;99.90
33077;DHT22;67066;51.964;5.924;2024-03-06T02:33:32;4.10;99.90
33077;DHT22;67066;51.964;5.924;2024-03-06T02:36:00;4.10;99.90
33077;DHT22;67066;51.964;5.924;2024-03-06T02:38:26;4.10;99.90
33077;DHT22;67066;51.964;5.924;2024-03-06T02:40:52;4.10;99.90
33077;DHT22;67066;51.964;5.924;2024-03-06T02:43:18;4.00;99.90
33077;DHT22;67066;51.964;5.924;2024-03-06T02:45:44;3.90;99.90
33077;DHT22;67066;51.964;5.924;2024-03-06T02:48:10;3.90;99.90
33077;DHT22;67066;51.964;5.924;2024-03-06T02:50:36;3.90;99.90
33077;DHT22;67066;51.964;5.924;2024-03-06T02:53:02;3.90;99.90
33077;DHT22;67066;51.964;5.924;2024-03-06T02:55:29;3.90;99.90
33077;DHT22;67066;51.964;5.924;2024-03-06T02:57:55;4.00;99.90
33077;DHT22;67066;51.964;5.924;2024-03-06T03:00:21;3.90;99.90
33077;DHT22;67066;51.964;5.924;2024-03-06T03:02:47;3.90;99.90
33077;DHT22;67066;51.964;5.924;2024-03-06T03:05:13;3.80;99.90
33077;DHT22;67066;51.964;5.924;2024-03-06T03:07:39;3.80;99.90
33077;DHT22;67066;51.964;5.924;2024-03-06T03:10:06;3.70;99.90
33077;DHT22;67066;51.964;5.924;2024-03-06T03:12:32;3.70;99.90
33077;DHT22;67066;51.964;5.924;2024-03-06T03:14:58;3.70;99.90
33077;DHT22;67066;51.964;5.924;2024-03-06T03:17:24;3.70;99.90
33077;DHT22;67066;51.964;5.924;2024-03-06T03:19:50;3.70;99.90
33077;DHT22;67066;51.964;5.924;2024-03-06T03:22:16;3.70;99.90
33077;DHT22;67066;51.964;5.924;2024-03-06T03:24:42;3.70;99.90
33077;DHT22;67066;51.964;5.924;2024-03-06T03:27:09;3.70;99.90
33077;DHT22;67066;51.964;5.924;2024-03-06T03:29:35;3.70;99.90
33077;DHT22;67066;51.964;5.924;2024-03-06T03:32:01;3.60;99.90
33077;DHT22;67066;51.964;5.924;2024-03-06T03:34:27;3.70;99.90
33077;DHT22;67066;51.964;5.924;2024-03-06T03:36:53;3.70;99.90
33077;DHT22;67066;51.964;5.924;2024-03-06T03:39:19;3.70;99.90
33077;DHT22;67066;51.964;5.924;2024-03-06T03:41:48;3.80;99.90
33077;DHT22;67066;51.964;5.924;2024-03-06T03:44:16;3.80;99.90
33077;DHT22;67066;51.964;5.924;2024-03-06T03:46:42;3.70;99.90
33077;DHT22;67066;51.964;5.924;2024-03-06T03:49:09;3.60;99.90
33077;DHT22;67066;51.964;5.924;2024-03-06T03:51:36;3.60;99.90
33077;DHT22;67066;51.964;5.924;2024-03-06T03:54:03;3.50;99.90
33077;DHT22;67066;51.964;5.924;2024-03-06T03:56:29;3.40;99.90
33077;DHT22;67066;51.964;5.924;2024-03-06T03:58:56;3.40;99.90
33077;DHT22;67066;51.964;5.924;2024-03-06T04:01:24;3.40;99.90
33077;DHT22;67066;51.964;5.924;2024-03-06T04:03:50;3.40;99.90
33077;DHT22;67066;51.964;5.924;2024-03-06T04:06:16;3.40;99.90
33077;DHT22;67066;51.964;5.924;2024-03-06T04:08:42;3.40;99.90
33077;DHT22;67066;51.964;5.924;2024-03-06T04:11:09;3.40;99.90
33077;DHT22;67066;51.964;5.924;2024-03-06T04:13:36;3.40;99.90
33077;DHT22;67066;51.964;5.924;2024-03-06T04:16:02;3.30;99.90
33077;DHT22;67066;51.964;5.924;2024-03-06T04:18:32;3.30;99.90
33077;DHT22;67066;51.964;5.924;2024-03-06T04:21:05;3.30;99.90
33077;DHT22;67066;51.964;5.924;2024-03-06T04:23:32;3.30;99.90
33077;DHT22;67066;51.964;5.924;2024-03-06T04:26:02;3.30;99.90
33077;DHT22;67066;51.964;5.924;2024-03-06T04:28:28;3.30;99.90
33077;DHT22;67066;51.964;5.924;2024-03-06T04:30:54;3.20;99.90
33077;DHT22;67066;51.964;5.924;2024-03-06T04:33:20;3.10;99.90
33077;DHT22;67066;51.964;5.924;2024-03-06T04:35:46;3.10;99.90
33077;DHT22;67066;51.964;5.924;2024-03-06T04:38:12;3.10;99.90
33077;DHT22;67066;51.964;5.924;2024-03-06T04:40:39;3.00;99.90
33077;DHT22;67066;51.964;5.924;2024-03-06T04:43:05;3.00;99.90
33077;DHT22;67066;51.964;5.924;2024-03-06T04:45:33;3.00;99.90
33077;DHT22;67066;51.964;5.924;2024-03-06T04:47:59;3.10;99.90
33077;DHT22;67066;51.964;5.924;2024-03-06T04:50:25;3.10;99.90
33077;DHT22;67066;51.964;5.924;2024-03-06T04:52:52;3.10;99.90
33077;DHT22;67066;51.964;5.924;2024-03-06T04:55:20;3.00;99.90
33077;DHT22;67066;51.964;5.924;2024-03-06T04:57:48;3.00;99.90
33077;DHT22;67066;51.964;5.924;2024-03-06T05:00:15;3.00;99.90
33077;DHT22;67066;51.964;5.924;2024-03-06T05:02:41;3.00;99.90
33077;DHT22;67066;51.964;5.924;2024-03-06T05:05:08;3.00;99.90
33077;DHT22;67066;51.964;5.924;2024-03-06T05:07:34;3.00;99.90
33077;DHT22;67066;51.964;5.924;2024-03-06T05:10:00;3.00;99.90
33077;DHT22;67066;51.964;5.924;2024-03-06T05:12:27;3.00;99.90
33077;DHT22;67066;51.964;5.924;2024-03-06T05:14:54;3.10;99.90
33077;DHT22;67066;51.964;5.924;2024-03-06T05:17:21;3.20;99.90
33077;DHT22;67066;51.964;5.924;2024-03-06T05:19:48;3.20;99.90
33077;DHT22;67066;51.964;5.924;2024-03-06T05:22:15;3.10;99.90
33077;DHT22;67066;51.964;5.924;2024-03-06T05:24:42;3.00;99.90
33077;DHT22;67066;51.964;5.924;2024-03-06T05:27:09;3.10;99.90
33077;DHT22;67066;51.964;5.924;2024-03-06T05:29:36;3.10;99.90
33077;DHT22;67066;51.964;5.924;2024-03-06T05:32:04;3.20;99.90
33077;DHT22;67066;51.964;5.924;2024-03-06T05:34:30;3.20;99.90
33077;DHT22;67066;51.964;5.924;2024-03-06T05:36:56;3.20;99.90
33077;DHT22;67066;51.964;5.924;2024-03-06T05:39:23;3.20;99.90
33077;DHT22;67066;51.964;5.924;2024-03-06T05:41:49;3.30;99.90
33077;DHT22;67066;51.964;5.924;2024-03-06T05:44:15;3.30;99.90
33077;DHT22;67066;51.964;5.924;2024-03-06T05:46:41;3.20;99.90
33077;DHT22;67066;51.964;5.924;2024-03-06T05:49:07;3.20;99.90
33077;DHT22;67066;51.964;5.924;2024-03-06T05:51:33;3.20;99.90
33077;DHT22;67066;51.964;5.924;2024-03-06T05:54:00;3.20;99.90
33077;DHT22;67066;51.964;5.924;2024-03-06T05:56:26;3.30;99.90
33077;DHT22;67066;51.964;5.924;2024-03-06T05:58:52;3.20;99.90
33077;DHT22;67066;51.964;5.924;2024-03-06T06:01:20;3.20;99.90
33077;DHT22;67066;51.964;5.924;2024-03-06T06:03:48;3.10;99.90
33077;DHT22;67066;51.964;5.924;2024-03-06T06:06:18;3.10;99.90
33077;DHT22;67066;51.964;5.924;2024-03-06T06:08:45;3.20;99.90
33077;DHT22;67066;51.964;5.924;2024-03-06T06:11:11;3.20;99.90
33077;DHT22;67066;51.964;5.924;2024-03-06T06:13:38;3.20;99.90
33077;DHT22;67066;51.964;5.924;2024-03-06T06:16:05;3.20;99.90
33077;DHT22;67066;51.964;5.924;2024-03-06T06:18:32;3.30;99.90
33077;DHT22;67066;51.964;5.924;2024-03-06T06:20:59;3.30;99.90
33077;DHT22;67066;51.964;5.924;2024-03-06T06:23:25;3.20;99.90
33077;DHT22;67066;51.964;5.924;2024-03-06T06:25:51;3.20;99.90
33077;DHT22;67066;51.964;5.924;2024-03-06T06:28:17;3.20;99.90
33077;DHT22;67066;51.964;5.924;2024-03-06T06:30:43;3.20;99.90
33077;DHT22;67066;51.964;5.924;2024-03-06T06:33:09;3.10;99.90
33077;DHT22;67066;51.964;5.924;2024-03-06T06:35:35;3.10;99.90
33077;DHT22;67066;51.964;5.924;2024-03-06T06:38:02;3.10;99.90
33077;DHT22;67066;51.964;5.924;2024-03-06T06:40:28;3.10;99.90
33077;DHT22;67066;51.964;5.924;2024-03-06T06:46:17;3.10;99.90
33077;DHT22;67066;51.964;5.924;2024-03-06T06:48:44;3.10;99.90
33077;DHT22;67066;51.964;5.924;2024-03-06T06:51:10;3.20;99.90
33077;DHT22;67066;51.964;5.924;2024-03-06T06:53:39;3.20;99.90
33077;DHT22;67066;51.964;5.924;2024-03-06T06:56:07;3.30;99.90
33077;DHT22;67066;51.964;5.924;2024-03-06T06:58:33;3.30;99.90
33077;DHT22;67066;51.964;5.924;2024-03-06T07:00:59;3.30;99.90
33077;DHT22;67066;51.964;5.924;2024-03-06T07:03:26;3.40;99.90
33077;DHT22;67066;51.964;5.924;2024-03-06T07:05:56;3.50;99.90
33077;DHT22;67066;51.964;5.924;2024-03-06T07:08:23;3.50;99.90
33077;DHT22;67066;51.964;5.924;2024-03-06T07:10:50;3.50;99.90
33077;DHT22;67066;51.964;5.924;2024-03-06T07:13:16;3.50;99.90
33077;DHT22;67066;51.964;5.924;2024-03-06T07:15:43;3.50;99.90
33077;DHT22;67066;51.964;5.924;2024-03-06T07:18:09;3.40;99.90
33077;DHT22;67066;51.964;5.924;2024-03-06T07:20:35;3.40;99.90
33077;DHT22;67066;51.964;5.924;2024-03-06T07:23:01;3.50;99.90
33077;DHT22;67066;51.964;5.924;2024-03-06T07:25:27;3.50;99.90
33077;DHT22;67066;51.964;5.924;2024-03-06T07:27:53;3.60;99.90
33077;DHT22;67066;51.964;5.924;2024-03-06T07:30:19;3.60;99.90
33077;DHT22;67066;51.964;5.924;2024-03-06T07:32:46;3.60;99.90
33077;DHT22;67066;51.964;5.924;2024-03-06T07:35:12;3.70;99.90
33077;DHT22;67066;51.964;5.924;2024-03-06T07:37:38;3.70;99.90
33077;DHT22;67066;51.964;5.924;2024-03-06T07:40:08;3.60;99.90
33077;DHT22;67066;51.964;5.924;2024-03-06T07:42:35;3.50;99.90
33077;DHT22;67066;51.964;5.924;2024-03-06T07:45:01;3.50;99.90
33077;DHT22;67066;51.964;5.924;2024-03-06T07:47:28;3.60;99.90
33077;DHT22;67066;51.964;5.924;2024-03-06T07:49:54;3.60;99.90
33077;DHT22;67066;51.964;5.924;2024-03-06T07:52:20;3.70;99.90
33077;DHT22;67066;51.964;5.924;2024-03-06T07:54:46;3.80;99.90
33077;DHT22;67066;51.964;5.924;2024-03-06T07:57:13;3.90;99.90
33077;DHT22;67066;51.964;5.924;2024-03-06T07:59:39;4.00;99.90
33077;DHT22;67066;51.964;5.924;2024-03-06T08:02:05;4.20;99.90
33077;DHT22;67066;51.964;5.924;2024-03-06T08:04:32;4.30;99.90
33077;DHT22;67066;51.964;5.924;2024-03-06T08:06:58;4.30;99.90
33077;DHT22;67066;51.964;5.924;2024-03-06T08:09:24;4.30;99.90
33077;DHT22;67066;51.964;5.924;2024-03-06T08:11:54;4.30;99.90
33077;DHT22;67066;51.964;5.924;2024-03-06T08:14:20;4.30;99.90
33077;DHT22;67066;51.964;5.924;2024-03-06T08:16:46;4.40;99.90
33077;DHT22;67066;51.964;5.924;2024-03-06T08:19:13;4.50;99.90
33077;DHT22;67066;51.964;5.924;2024-03-06T08:21:40;4.50;99.90
33077;DHT22;67066;51.964;5.924;2024-03-06T08:24:06;4.50;99.90
33077;DHT22;67066;51.964;5.924;2024-03-06T08:26:32;4.60;99.90
33077;DHT22;67066;51.964;5.924;2024-03-06T08:28:58;4.70;99.90
33077;DHT22;67066;51.964;5.924;2024-03-06T08:31:24;4.70;99.90
33077;DHT22;67066;51.964;5.924;2024-03-06T08:33:51;4.80;99.90
33077;DHT22;67066;51.964;5.924;2024-03-06T08:36:19;4.80;99.90
33077;DHT22;67066;51.964;5.924;2024-03-06T08:38:45;4.90;99.90
33077;DHT22;67066;51.964;5.924;2024-03-06T08:41:11;4.90;99.90
33077;DHT22;67066;51.964;5.924;2024-03-06T08:43:37;4.90;99.90
33077;DHT22;67066;51.964;5.924;2024-03-06T08:46:03;4.90;99.90
33077;DHT22;67066;51.964;5.924;2024-03-06T08:48:30;5.10;99.90
33077;DHT22;67066;51.964;5.924;2024-03-06T08:50:56;5.30;99.90
33077;DHT22;67066;51.964;5.924;2024-03-06T08:53:22;5.30;99.90
33077;DHT22;67066;51.964;5.924;2024-03-06T08:55:48;5.40;99.90
33077;DHT22;67066;51.964;5.924;2024-03-06T08:58:15;5.50;99.90
33077;DHT22;67066;51.964;5.924;2024-03-06T09:00:41;5.60;99.90
33077;DHT22;67066;51.964;5.924;2024-03-06T09:03:07;5.70;99.90
33077;DHT22;67066;51.964;5.924;2024-03-06T09:05:33;5.90;99.90
33077;DHT22;67066;51.964;5.924;2024-03-06T09:07:59;5.90;99.90
33077;DHT22;67066;51.964;5.924;2024-03-06T09:10:25;5.80;99.90
33077;DHT22;67066;51.964;5.924;2024-03-06T09:12:51;5.80;99.90
33077;DHT22;67066;51.964;5.924;2024-03-06T09:15:17;5.90;99.90
33077;DHT22;67066;51.964;5.924;2024-03-06T09:17:43;5.90;99.90
33077;DHT22;67066;51.964;5.924;2024-03-06T09:20:11;6.00;99.90
33077;DHT22;67066;51.964;5.924;2024-03-06T09:22:38;6.10;99.90
33077;DHT22;67066;51.964;5.924;2024-03-06T09:25:05;6.10;99.90
33077;DHT22;67066;51.964;5.924;2024-03-06T09:27:32;6.10;99.90
33077;DHT22;67066;51.964;5.924;2024-03-06T09:29:58;6.10;99.90
33077;DHT22;67066;51.964;5.924;2024-03-06T09:32:24;6.10;99.90
33077;DHT22;67066;51.964;5.924;2024-03-06T09:34:52;6.20;99.90
33077;DHT22;67066;51.964;5.924;2024-03-06T09:37:19;6.40;99.90
33077;DHT22;67066;51.964;5.924;2024-03-06T09:39:45;6.20;99.90
33077;DHT22;67066;51.964;5.924;2024-03-06T09:42:14;6.20;99.90
33077;DHT22;67066;51.964;5.924;2024-03-06T09:44:40;6.20;99.90
33077;DHT22;67066;51.964;5.924;2024-03-06T09:47:07;6.40;99.90
33077;DHT22;67066;51.964;5.924;2024-03-06T09:49:36;6.30;99.90
33077;DHT22;67066;51.964;5.924;2024-03-06T09:52:03;6.30;99.90
33077;DHT22;67066;51.964;5.924;2024-03-06T09:54:30;6.40;99.90
33077;DHT22;67066;51.964;5.924;2024-03-06T09:56:56;6.40;99.90
33077;DHT22;67066;51.964;5.924;2024-03-06T09:59:24;6.50;99.90
33077;DHT22;67066;51.964;5.924;2024-03-06T10:01:55;6.60;99.90
33077;DHT22;67066;51.964;5.924;2024-03-06T10:04:28;6.70;99.90
33077;DHT22;67066;51.964;5.924;2024-03-06T10:06:56;6.60;99.90
33077;DHT22;67066;51.964;5.924;2024-03-06T10:09:22;6.50;99.90
33077;DHT22;67066;51.964;5.924;2024-03-06T10:11:49;6.40;99.90
33077;DHT22;67066;51.964;5.924;2024-03-06T10:14:15;6.40;99.90
33077;DHT22;67066;51.964;5.924;2024-03-06T10:16:57;6.40;99.90
33077;DHT22;67066;51.964;5.924;2024-03-06T10:19:27;6.50;99.90
33077;DHT22;67066;51.964;5.924;2024-03-06T10:21:57;6.50;99.90
33077;DHT22;67066;51.964;5.924;2024-03-06T10:24:25;6.50;99.90
33077;DHT22;67066;51.964;5.924;2024-03-06T10:26:54;6.50;99.90
33077;DHT22;67066;51.964;5.924;2024-03-06T10:29:22;6.60;99.90
33077;DHT22;67066;51.964;5.924;2024-03-06T10:31:52;6.60;99.90
33077;DHT22;67066;51.964;5.924;2024-03-06T10:34:57;6.70;99.90
33077;DHT22;67066;51.964;5.924;2024-03-06T10:44:26;7.10;99.90
33077;DHT22;67066;51.964;5.924;2024-03-06T10:46:59;7.20;99.90
33077;DHT22;67066;51.964;5.924;2024-03-06T10:49:27;7.30;99.90
33077;DHT22;67066;51.964;5.924;2024-03-06T10:52:04;7.50;99.90
33077;DHT22;67066;51.964;5.924;2024-03-06T10:54:34;7.50;99.90
33077;DHT22;67066;51.964;5.924;2024-03-06T10:57:02;7.60;99.90
33077;DHT22;67066;51.964;5.924;2024-03-06T10:59:29;7.50;99.90
33077;DHT22;67066;51.964;5.924;2024-03-06T11:01:56;7.40;99.90
33077;DHT22;67066;51.964;5.924;2024-03-06T11:04:25;7.40;99.90
33077;DHT22;67066;51.964;5.924;2024-03-06T11:06:58;7.50;99.90
33077;DHT22;67066;51.964;5.924;2024-03-06T11:09:28;7.50;99.90
33077;DHT22;67066;51.964;5.924;2024-03-06T11:11:58;7.50;99.90
33077;DHT22;67066;51.964;5.924;2024-03-06T11:14:24;7.50;99.90
33077;DHT22;67066;51.964;5.924;2024-03-06T11:16:59;7.50;99.90
33077;DHT22;67066;51.964;5.924;2024-03-06T11:19:26;7.70;99.90
33077;DHT22;67066;51.964;5.924;2024-03-06T11:21:53;7.70;99.90
33077;DHT22;67066;51.964;5.924;2024-03-06T11:24:23;7.70;99.90
33077;DHT22;67066;51.964;5.924;2024-03-06T11:29:18;7.70;99.90
33077;DHT22;67066;51.964;5.924;2024-03-06T11:32:04;7.80;99.90
33077;DHT22;67066;51.964;5.924;2024-03-06T11:34:34;8.10;99.90
33077;DHT22;67066;51.964;5.924;2024-03-06T11:37:04;8.50;99.90
33077;DHT22;67066;51.964;5.924;2024-03-06T11:39:37;8.60;99.90
33077;DHT22;67066;51.964;5.924;2024-03-06T11:42:05;8.30;99.90
33077;DHT22;67066;51.964;5.924;2024-03-06T11:44:34;8.10;99.90
33077;DHT22;67066;51.964;5.924;2024-03-06T11:47:08;8.00;99.90
33077;DHT22;67066;51.964;5.924;2024-03-06T11:49:35;8.20;99.90
33077;DHT22;67066;51.964;5.924;2024-03-06T11:52:05;8.40;99.90
33077;DHT22;67066;51.964;5.924;2024-03-06T11:54:32;8.70;99.90
33077;DHT22;67066;51.964;5.924;2024-03-06T11:57:00;8.90;99.90
33077;DHT22;67066;51.964;5.924;2024-03-06T11:59:28;9.00;99.90
33077;DHT22;67066;51.964;5.924;2024-03-06T12:01:57;8.70;99.90
33077;DHT22;67066;51.964;5.924;2024-03-06T12:04:24;8.70;99.90
33077;DHT22;67066;51.964;5.924;2024-03-06T12:06:51;8.80;99.90
33077;DHT22;67066;51.964;5.924;2024-03-06T12:09:17;8.70;99.90
33077;DHT22;67066;51.964;5.924;2024-03-06T12:11:44;8.80;99.90
33077;DHT22;67066;51.964;5.924;2024-03-06T12:14:20;9.00;99.90
33077;DHT22;67066;51.964;5.924;2024-03-06T12:16:57;8.90;99.90
33077;DHT22;67066;51.964;5.924;2024-03-06T12:19:26;8.60;99.90
33077;DHT22;67066;51.964;5.924;2024-03-06T12:21:53;8.30;99.90
33077;DHT22;67066;51.964;5.924;2024-03-06T12:24:20;8.10;99.90
33077;DHT22;67066;51.964;5.924;2024-03-06T12:26:46;8.10;99.90
33077;DHT22;67066;51.964;5.924;2024-03-06T12:29:18;8.20;99.90
33077;DHT22;67066;51.964;5.924;2024-03-06T12:31:45;8.20;99.90
33077;DHT22;67066;51.964;5.924;2024-03-06T12:34:15;8.30;99.90
33077;DHT22;67066;51.964;5.924;2024-03-06T12:36:44;8.40;99.90
33077;DHT22;67066;51.964;5.924;2024-03-06T12:39:10;8.60;99.90
33077;DHT22;67066;51.964;5.924;2024-03-06T12:41:40;8.70;99.90
33077;DHT22;67066;51.964;5.924;2024-03-06T12:44:06;8.80;99.90
33077;DHT22;67066;51.964;5.924;2024-03-06T12:46:35;9.00;99.90
33077;DHT22;67066;51.964;5.924;2024-03-06T12:49:01;9.00;99.90
33077;DHT22;67066;51.964;5.924;2024-03-06T12:51:28;9.10;99.90
33077;DHT22;67066;51.964;5.924;2024-03-06T12:53:54;9.00;99.90
33077;DHT22;67066;51.964;5.924;2024-03-06T12:56:20;9.10;99.90
33077;DHT22;67066;51.964;5.924;2024-03-06T12:58:46;9.20;99.90
33077;DHT22;67066;51.964;5.924;2024-03-06T13:01:12;9.20;99.90
33077;DHT22;67066;51.964;5.924;2024-03-06T13:03:38;9.30;99.90
33077;DHT22;67066;51.964;5.924;2024-03-06T13:06:04;9.40;99.90
33077;DHT22;67066;51.964;5.924;2024-03-06T13:08:31;9.50;99.90
33077;DHT22;67066;51.964;5.924;2024-03-06T13:10:57;9.50;99.90
33077;DHT22;67066;51.964;5.924;2024-03-06T13:13:25;9.60;99.90
33077;DHT22;67066;51.964;5.924;2024-03-06T13:15:51;9.60;99.90
33077;DHT22;67066;51.964;5.924;2024-03-06T13:18:18;9.70;99.90
33077;DHT22;67066;51.964;5.924;2024-03-06T13:20:44;9.70;99.90
33077;DHT22;67066;51.964;5.924;2024-03-06T13:23:11;9.80;99.90
33077;DHT22;67066;51.964;5.924;2024-03-06T13:25:37;9.80;99.90
33077;DHT22;67066;51.964;5.924;2024-03-06T13:28:04;9.80;99.90
33077;DHT22;67066;51.964;5.924;2024-03-06T13:30:31;9.80;99.90
33077;DHT22;67066;51.964;5.924;2024-03-06T13:32:58;9.90;99.90
33077;DHT22;67066;51.964;5.924;2024-03-06T13:35:24;9.90;99.90
33077;DHT22;67066;51.964;5.924;2024-03-06T13:37:50;9.90;99.90
33077;DHT22;67066;51.964;5.924;2024-03-06T13:40:17;10.00;99.90
33077;DHT22;67066;51.964;5.924;2024-03-06T13:42:43;10.00;99.90
33077;DHT22;67066;51.964;5.924;2024-03-06T13:45:10;10.10;99.90
33077;DHT22;67066;51.964;5.924;2024-03-06T13:47:41;10.10;99.90
33077;DHT22;67066;51.964;5.924;2024-03-06T13:50:14;10.00;99.90
33077;DHT22;67066;51.964;5.924;2024-03-06T13:52:41;10.00;99.90
33077;DHT22;67066;51.964;5.924;2024-03-06T13:55:08;10.10;99.90
33077;DHT22;67066;51.964;5.924;2024-03-06T13:57:35;10.10;99.90
33077;DHT22;67066;51.964;5.924;2024-03-06T14:00:06;10.20;99.90
33077;DHT22;67066;51.964;5.924;2024-03-06T14:02:33;10.20;99.90
33077;DHT22;67066;51.964;5.924;2024-03-06T14:04:59;10.20;99.90
33077;DHT22;67066;51.964;5.924;2024-03-06T14:07:25;10.20;99.90
33077;DHT22;67066;51.964;5.924;2024-03-06T14:09:51;10.20;99.90
33077;DHT22;67066;51.964;5.924;2024-03-06T14:12:17;10.20;99.90
33077;DHT22;67066;51.964;5.924;2024-03-06T14:14:44;10.20;99.90
33077;DHT22;67066;51.964;5.924;2024-03-06T14:17:13;10.20;99.90
33077;DHT22;67066;51.964;5.924;2024-03-06T14:19:39;10.40;99.90
33077;DHT22;67066;51.964;5.924;2024-03-06T14:22:09;10.40;99.90
33077;DHT22;67066;51.964;5.924;2024-03-06T14:24:35;10.50;99.90
33077;DHT22;67066;51.964;5.924;2024-03-06T14:27:04;10.50;99.90
33077;DHT22;67066;51.964;5.924;2024-03-06T14:29:31;10.70;99.90
33077;DHT22;67066;51.964;5.924;2024-03-06T14:31:57;10.70;99.90
33077;DHT22;67066;51.964;5.924;2024-03-06T14:34:24;10.60;99.90
33077;DHT22;67066;51.964;5.924;2024-03-06T14:36:53;10.60;99.90
33077;DHT22;67066;51.964;5.924;2024-03-06T14:39:19;10.60;99.90
33077;DHT22;67066;51.964;5.924;2024-03-06T14:41:48;10.60;99.90
33077;DHT22;67066;51.964;5.924;2024-03-06T14:44:14;10.60;99.90
33077;DHT22;67066;51.964;5.924;2024-03-06T14:46:41;10.60;99.90
33077;DHT22;67066;51.964;5.924;2024-03-06T14:49:08;10.60;99.90
33077;DHT22;67066;51.964;5.924;2024-03-06T14:51:34;10.60;99.90
33077;DHT22;67066;51.964;5.924;2024-03-06T14:54:01;10.60;99.90
33077;DHT22;67066;51.964;5.924;2024-03-06T14:56:27;10.70;99.90
33077;DHT22;67066;51.964;5.924;2024-03-06T14:58:53;10.60;99.90
33077;DHT22;67066;51.964;5.924;2024-03-06T15:01:19;10.40;99.90
33077;DHT22;67066;51.964;5.924;2024-03-06T15:03:45;10.50;99.90
33077;DHT22;67066;51.964;5.924;2024-03-06T15:06:12;10.60;99.90
33077;DHT22;67066;51.964;5.924;2024-03-06T15:08:38;10.60;99.90
33077;DHT22;67066;51.964;5.924;2024-03-06T15:11:04;10.60;99.90
33077;DHT22;67066;51.964;5.924;2024-03-06T15:13:30;10.60;99.90
33077;DHT22;67066;51.964;5.924;2024-03-06T15:15:56;10.70;99.90
33077;DHT22;67066;51.964;5.924;2024-03-06T15:18:22;10.70;99.90
33077;DHT22;67066;51.964;5.924;2024-03-06T15:20:51;10.60;99.90
33077;DHT22;67066;51.964;5.924;2024-03-06T15:23:17;10.50;99.90
33077;DHT22;67066;51.964;5.924;2024-03-06T15:25:43;10.60;99.90
33077;DHT22;67066;51.964;5.924;2024-03-06T15:28:10;10.60;99.90
33077;DHT22;67066;51.964;5.924;2024-03-06T15:30:37;10.50;99.90
33077;DHT22;67066;51.964;5.924;2024-03-06T15:33:04;10.50;99.90
33077;DHT22;67066;51.964;5.924;2024-03-06T15:35:31;10.50;99.90
33077;DHT22;67066;51.964;5.924;2024-03-06T15:37:57;10.50;99.90
33077;DHT22;67066;51.964;5.924;2024-03-06T15:40:23;10.50;99.90
33077;DHT22;67066;51.964;5.924;2024-03-06T15:42:49;10.50;99.90
33077;DHT22;67066;51.964;5.924;2024-03-06T15:45:15;10.50;99.90
33077;DHT22;67066;51.964;5.924;2024-03-06T15:47:41;10.50;99.90
33077;DHT22;67066;51.964;5.924;2024-03-06T15:50:11;10.50;99.90
33077;DHT22;67066;51.964;5.924;2024-03-06T15:52:38;10.50;99.90
33077;DHT22;67066;51.964;5.924;2024-03-06T15:55:06;10.50;99.90
33077;DHT22;67066;51.964;5.924;2024-03-06T15:57:32;10.50;99.90
33077;DHT22;67066;51.964;5.924;2024-03-06T15:59:58;10.40;99.90